Time;durP1;ratioP1;P1;durP2;ratioP2;P2;SDS_P1;SDS_P2;PMS_P1;PMS_P2;Temp;Humidity;BMP_temperature;BMP_pressure;BME280_temperature;BME280_humidity;BME280_pressure;Samples;Min_cycle;Max_cycle;Signal;HPM_P1;HPM_P2
2023/10/21 00:01:01;;;;;;;1.83;1.17;;;14.20;24.50;;;;;;5036031;28;20418;-81
2023/10/21 00:03:31;;;;;;;3.17;1.37;;;14.20;26.20;;;;;;5032694;28;20541;-80
2023/10/21 00:06:02;;;;;;;3.90;1.37;;;14.20;29.80;;;;;;5037022;28;20389;-81
2023/10/21 00:08:31;;;;;;;2.97;1.10;;;14.20;27.00;;;;;;5040637;28;20419;-81
2023/10/21 00:11:31;;;;;;;2.30;1.50;;;14.30;23.60;;;;;;5048862;28;20482;-80
2023/10/21 00:13:57;;;;;;;1.23;1.13;;;14.30;23.00;;;;;;5053509;28;20883;-72
2023/10/21 00:16:23;;;;;;;7.47;1.60;;;14.20;22.80;;;;;;5036970;28;20439;-72
2023/10/21 00:18:49;;;;;;;28.47;4.47;;;14.20;21.60;;;;;;5037391;28;20215;-72
2023/10/21 00:21:31;;;;;;;5.10;1.50;;;14.20;20.60;;;;;;5038960;28;20789;-72
2023/10/21 00:24:02;;;;;;;1.33;1.20;;;14.20;20.00;;;;;;5033433;28;20575;-72
2023/10/21 00:26:28;;;;;;;11.03;1.90;;;14.20;17.30;;;;;;5028519;28;20435;-72
2023/10/21 00:28:55;;;;;;;27.67;2.17;;;14.10;13.80;;;;;;5034765;28;20403;-72
2023/10/21 00:31:25;;;;;;;5.13;1.20;;;14.20;16.50;;;;;;5041377;28;20202;-72
2023/10/21 00:33:55;;;;;;;4.90;1.73;;;14.10;14.10;;;;;;5040070;28;20733;-72
2023/10/21 00:36:21;;;;;;;4.63;2.10;;;14.10;16.80;;;;;;5033048;28;20784;-72
2023/10/21 00:38:47;;;;;;;3.83;1.20;;;14.20;16.20;;;;;;5046627;28;20454;-72
2023/10/21 00:41:13;;;;;;;8.00;1.77;;;14.10;14.20;;;;;;5046673;28;20175;-72
2023/10/21 00:43:40;;;;;;;6.43;2.20;;;14.10;14.30;;;;;;5052233;28;20176;-72
2023/10/21 00:46:31;;;;;;;2.53;1.60;;;14.10;14.40;;;;;;5037474;28;20385;-80
2023/10/21 00:49:31;;;;;;;3.00;1.27;;;14.10;13.10;;;;;;5037161;28;20456;-80
2023/10/21 00:52:04;;;;;;;1.43;1.20;;;14.20;9.50;;;;;;5037234;28;20520;-80
2023/10/21 00:54:31;;;;;;;1.00;0.90;;;14.10;8.50;;;;;;5040924;28;20441;-80
2023/10/21 00:57:01;;;;;;;5.07;1.30;;;14.20;6.40;;;;;;5056859;28;20420;-80
2023/10/21 00:59:27;;;;;;;1.97;1.27;;;14.20;3.80;;;;;;5043891;28;20427;-72
2023/10/21 01:01:55;;;;;;;2.77;1.33;;;14.30;1.70;;;;;;5043331;28;20438;-72
2023/10/21 01:04:32;;;;;;;3.27;1.03;;;14.30;1.40;;;;;;5035712;28;20283;-72
2023/10/21 01:06:58;;;;;;;1.33;0.83;;;14.40;1.00;;;;;;5049762;28;20413;-72
2023/10/21 01:09:24;;;;;;;2.83;0.90;;;14.30;1.00;;;;;;5036857;28;20929;-72
2023/10/21 01:11:55;;;;;;;6.33;1.00;;;14.40;1.00;;;;;;5047297;28;20194;-72
2023/10/21 01:14:57;;;;;;;6.07;1.00;;;14.60;1.00;;;;;;5030401;28;20964;-80
2023/10/21 01:17:31;;;;;;;0.63;0.50;;;14.60;1.00;;;;;;5041134;28;20430;-81
2023/10/21 01:20:13;;;;;;;5.03;1.30;;;14.70;1.00;;;;;;5028774;28;20436;-80
2023/10/21 01:22:39;;;;;;;3.93;0.80;;;14.70;1.00;;;;;;5041079;28;20433;-80
2023/10/21 01:25:06;;;;;;;1.77;0.60;;;14.70;1.00;;;;;;5048993;28;20418;-80
2023/10/21 01:27:32;;;;;;;7.10;1.47;;;14.80;1.00;;;;;;5038885;28;20184;-81
2023/10/21 01:29:58;;;;;;;2.60;0.90;;;14.80;1.00;;;;;;5045671;28;20396;-80
2023/10/21 01:32:24;;;;;;;4.90;1.43;;;14.80;1.00;;;;;;5031369;28;20212;-80
2023/10/21 01:35:02;;;;;;;0.50;0.50;;;14.80;1.00;;;;;;5055204;28;20174;-80
2023/10/21 01:37:31;;;;;;;1.17;0.60;;;14.80;1.00;;;;;;5045560;28;20978;-79
2023/10/21 01:39:57;;;;;;;0.50;0.50;;;14.80;1.40;;;;;;5027793;28;20395;-80
2023/10/21 01:42:34;;;;;;;0.90;0.60;;;14.80;1.00;;;;;;5048352;28;20509;-79
2023/10/21 01:45:04;;;;;;;2.00;0.50;;;14.80;1.10;;;;;;5024518;28;20241;-80
2023/10/21 01:47:32;;;;;;;2.50;0.60;;;14.70;1.10;;;;;;5036149;28;20407;-80
2023/10/21 01:50:07;;;;;;;4.73;0.90;;;14.70;1.90;;;;;;5034231;28;20406;-80
2023/10/21 01:53:01;;;;;;;0.70;0.50;;;14.80;1.00;;;;;;5027915;28;20816;-80
2023/10/21 01:55:33;;;;;;;0.87;0.70;;;14.80;1.00;;;;;;5030280;28;20825;-80
2023/10/21 01:58:01;;;;;;;2.30;0.50;;;14.80;3.70;;;;;;5035815;28;20418;-80
2023/10/21 02:00:28;;;;;;;4.83;0.60;;;14.80;4.80;;;;;;5027988;28;20447;-72
2023/10/21 02:02:55;;;;;;;3.80;1.00;;;14.90;3.40;;;;;;5036904;28;20816;-72
2023/10/21 02:05:23;;;;;;;1.23;0.63;;;14.90;2.10;;;;;;5034128;28;20456;-72
2023/10/21 02:07:50;;;;;;;0.50;0.40;;;14.90;2.60;;;;;;5043281;28;20415;-72
2023/10/21 02:10:18;;;;;;;1.47;0.50;;;14.90;1.00;;;;;;5041912;28;20720;-72
2023/10/21 02:12:55;;;;;;;9.17;1.27;;;14.90;1.00;;;;;;5035253;28;20869;-72
2023/10/21 02:15:21;;;;;;;2.57;0.67;;;14.80;2.10;;;;;;5050099;28;20901;-72
2023/10/21 02:17:48;;;;;;;1.53;0.50;;;14.80;5.00;;;;;;5055299;28;20438;-72
2023/10/21 02:20:14;;;;;;;2.60;0.70;;;14.80;3.00;;;;;;5041793;28;20849;-72
2023/10/21 02:22:44;;;;;;;5.27;0.90;;;14.90;5.60;;;;;;5039768;28;20442;-72
2023/10/21 02:25:16;;;;;;;3.27;0.73;;;14.80;3.80;;;;;;5025222;28;20442;-72
2023/10/21 02:27:43;;;;;;;3.23;0.77;;;14.90;5.00;;;;;;5033635;28;20405;-72
2023/10/21 02:30:15;;;;;;;1.00;0.50;;;14.80;4.70;;;;;;5047715;28;20924;-80
2023/10/21 02:33:08;;;;;;;3.90;0.70;;;14.80;6.80;;;;;;5034382;28;20482;-79
2023/10/21 02:38:55;;;;;;;0.87;0.47;;;14.80;5.00;;;;;;5037869;28;20418;-80
2023/10/21 02:44:42;;;;;;;1.33;0.50;;;14.70;7.00;;;;;;5034924;28;20199;-79
2023/10/21 02:47:08;;;;;;;1.33;0.50;;;14.70;6.40;;;;;;5030772;28;20401;-72
2023/10/21 02:49:38;;;;;;;1.03;0.60;;;14.70;8.40;;;;;;5054685;28;20203;-72
2023/10/21 02:52:03;;;;;;;4.60;0.83;;;14.70;11.30;;;;;;5042657;28;20188;-72
2023/10/21 02:54:30;;;;;;;2.30;0.73;;;14.80;8.00;;;;;;5034522;28;20411;-71
2023/10/21 02:57:02;;;;;;;1.63;0.60;;;14.80;3.10;;;;;;5045140;28;20176;-72
2023/10/21 02:59:31;;;;;;;1.93;0.70;;;14.70;5.60;;;;;;5042547;28;20927;-72
2023/10/21 03:01:57;;;;;;;1.37;0.53;;;14.80;1.20;;;;;;5032723;28;20452;-72
2023/10/21 03:04:25;;;;;;;1.83;0.60;;;14.80;3.90;;;;;;5034412;28;20941;-72
2023/10/21 03:06:55;;;;;;;13.23;1.33;;;14.70;1.00;;;;;;5030853;28;20651;-72
2023/10/21 03:09:22;;;;;;;11.90;1.83;;;14.80;1.20;;;;;;5044326;28;20902;-72
2023/10/21 03:11:47;;;;;;;7.60;1.20;;;14.80;1.00;;;;;;5035290;28;20433;-71
2023/10/21 03:14:20;;;;;;;1.67;0.50;;;14.90;1.00;;;;;;5041821;28;20906;-72
2023/10/21 03:16:48;;;;;;;5.53;1.10;;;14.90;1.00;;;;;;5050548;28;20522;-71
2023/10/21 03:19:14;;;;;;;2.90;0.60;;;14.90;1.00;;;;;;5047176;28;20911;-72
2023/10/21 03:21:40;;;;;;;1.93;0.53;;;14.90;1.00;;;;;;5040931;28;20517;-71
2023/10/21 03:24:08;;;;;;;2.53;0.50;;;14.90;1.00;;;;;;5031856;28;20418;-72
2023/10/21 03:26:37;;;;;;;11.30;1.47;;;14.90;1.00;;;;;;5040336;28;20189;-72
2023/10/21 03:29:08;;;;;;;1.13;0.50;;;14.80;1.00;;;;;;5047748;28;20414;-72
2023/10/21 03:31:34;;;;;;;0.80;0.50;;;14.80;1.00;;;;;;5040244;28;20433;-73
2023/10/21 03:34:19;;;;;;;0.93;0.50;;;14.80;1.00;;;;;;5047959;28;20747;-80
2023/10/21 03:40:10;;;;;;;0.50;0.40;;;14.70;1.00;;;;;;5034286;28;20446;-81
2023/10/21 03:49:19;;;;;;;0.60;0.40;;;14.60;1.00;;;;;;5047518;28;20461;-81
2023/10/21 03:51:49;;;;;;;0.40;0.40;;;14.50;1.00;;;;;;5041051;28;20450;-80
2023/10/21 03:58:31;;;;;;;3.63;0.50;;;14.50;1.00;;;;;;5045104;28;20809;-82
2023/10/21 04:04:19;;;;;;;3.63;0.77;;;14.60;1.00;;;;;;5049864;28;20402;-78
2023/10/21 04:13:29;;;;;;;0.50;0.50;;;14.80;1.00;;;;;;5019483;28;20805;-78
2023/10/21 04:22:39;;;;;;;4.70;1.20;;;14.80;1.00;;;;;;5032645;28;20457;-83
2023/10/21 04:25:49;;;;;;;2.87;0.60;;;14.70;1.00;;;;;;5021861;28;20479;-83
2023/10/21 04:28:15;;;;;;;1.13;0.60;;;14.80;1.00;;;;;;5041139;28;20435;-83
2023/10/21 04:34:03;;;;;;;0.90;0.70;;;14.80;1.00;;;;;;5033004;28;20216;-80
2023/10/21 04:36:44;;;;;;;0.80;0.57;;;14.80;2.00;;;;;;5035171;28;20439;-82
2023/10/21 04:39:20;;;;;;;3.53;0.60;;;14.70;8.80;;;;;;5045498;28;20809;-84
2023/10/21 04:41:48;;;;;;;8.77;0.60;;;14.70;11.80;;;;;;5038141;28;20425;-83
2023/10/21 04:44:44;;;;;;;0.73;0.63;;;14.70;13.80;;;;;;5040899;28;20884;-82
2023/10/21 04:47:51;;;;;;;0.50;0.47;;;14.60;18.80;;;;;;5013099;28;20408;-83
2023/10/21 04:54:19;;;;;;;0.80;0.50;;;14.70;22.80;;;;;;5025284;28;20465;-82
2023/10/21 05:00:08;;;;;;;1.77;0.73;;;14.60;23.20;;;;;;5033210;28;20457;-83
2023/10/21 05:05:55;;;;;;;0.77;0.67;;;14.60;21.80;;;;;;5021421;28;20439;-78
2023/10/21 05:15:05;;;;;;;1.10;0.80;;;14.50;25.70;;;;;;5040574;28;20614;-78
2023/10/21 05:34:43;;;;;;;1.63;0.97;;;13.90;34.40;;;;;;5038992;28;20458;-78
2023/10/21 05:40:49;;;;;;;0.93;0.90;;;13.80;42.10;;;;;;5032243;28;20463;-78
2023/10/21 05:46:37;;;;;;;1.37;0.90;;;13.80;45.30;;;;;;5032855;28;20406;-78
2023/10/21 05:49:03;;;;;;;0.97;0.90;;;13.80;40.00;;;;;;5036732;28;20415;-83
2023/10/21 05:54:51;;;;;;;1.33;0.93;;;13.60;45.30;;;;;;5042485;28;20384;-82
2023/10/21 05:57:20;;;;;;;4.00;0.93;;;13.60;45.10;;;;;;5042867;28;20423;-81
2023/10/21 06:00:19;;;;;;;0.80;0.80;;;13.60;45.00;;;;;;5021064;28;20215;-82
2023/10/21 06:02:45;;;;;;;1.20;1.20;;;13.50;41.80;;;;;;5031314;28;20429;-84
2023/10/21 06:05:12;;;;;;;2.20;1.20;;;13.70;45.20;;;;;;5037720;28;20904;-84
2023/10/21 06:07:39;;;;;;;1.70;1.00;;;13.50;45.20;;;;;;5047294;28;20620;-83
2023/10/21 06:16:52;;;;;;;1.70;0.80;;;13.50;44.90;;;;;;5016319;28;20453;-84
2023/10/21 06:19:20;;;;;;;2.50;0.90;;;14.00;45.50;;;;;;5034005;28;20943;-84
2023/10/21 06:21:45;;;;;;;2.73;0.90;;;13.80;45.50;;;;;;5055058;28;20391;-83
2023/10/21 06:27:57;;;;;;;2.50;0.77;;;13.80;45.30;;;;;;5034572;28;20666;-81
2023/10/21 06:30:40;;;;;;;1.17;0.90;;;13.90;45.50;;;;;;5029135;28;20423;-81
2023/10/21 06:33:55;;;;;;;9.13;1.20;;;14.00;42.30;;;;;;5032153;28;20797;-81
2023/10/21 06:40:07;;;;;;;0.80;0.80;;;14.00;42.30;;;;;;5026510;28;20538;-82
2023/10/21 06:42:33;;;;;;;0.60;0.60;;;14.00;45.40;;;;;;5045069;28;20937;-82
2023/10/21 06:45:31;;;;;;;0.60;0.50;;;14.20;45.50;;;;;;5040368;28;20430;-82
2023/10/21 06:48:05;;;;;;;0.63;0.63;;;14.10;45.50;;;;;;5033285;28;20186;-81
2023/10/21 06:50:38;;;;;;;2.60;0.80;;;14.30;29.80;;;;;;5022339;28;20414;-81
2023/10/21 06:53:14;;;;;;;0.90;0.73;;;14.30;29.90;;;;;;5041441;28;20463;-82
2023/10/21 06:55:44;;;;;;;5.23;1.33;;;14.50;28.90;;;;;;5032034;28;20964;-81
2023/10/21 06:58:55;;;;;;;1.03;0.70;;;14.50;17.80;;;;;;5029306;28;20578;-81
2023/10/21 07:01:38;;;;;;;9.83;2.10;;;;;;;;;;5032558;28;20459;-81
2023/10/21 07:04:43;;;;;;;24.17;2.80;;;14.70;9.90;;;;;;5030926;28;20504;-73
2023/10/21 07:07:10;;;;;;;1.10;0.70;;;14.70;9.40;;;;;;5032155;28;20472;-72
2023/10/21 07:09:37;;;;;;;2.93;0.97;;;14.70;5.80;;;;;;5031012;28;20816;-73
2023/10/21 07:12:04;;;;;;;4.10;1.73;;;14.80;3.90;;;;;;5027172;28;20488;-73
2023/10/21 07:14:30;;;;;;;1.13;0.70;;;14.70;1.00;;;;;;5029256;28;20761;-72
2023/10/21 07:17:00;;;;;;;18.33;3.37;;;14.80;1.00;;;;;;5033969;28;20928;-72
2023/10/21 07:19:44;;;;;;;6.63;1.50;;;14.80;1.00;;;;;;5030278;28;20398;-81
2023/10/21 07:22:09;;;;;;;3.23;0.67;;;14.80;1.00;;;;;;5026483;28;20391;-81
2023/10/21 07:31:19;;;;;;;5.77;1.80;;;14.90;1.00;;;;;;5045613;28;20417;-83
2023/10/21 07:37:06;;;;;;;17.43;4.70;;;14.80;1.00;;;;;;5024815;28;20263;-83
2023/10/21 07:42:54;;;;;;;3.83;1.70;;;14.80;1.00;;;;;;5030024;28;20239;-83
2023/10/21 07:49:03;;;;;;;13.03;2.73;;;15.20;1.00;;;;;;5037811;28;20199;-83
2023/10/21 07:51:32;;;;;;;21.33;19.10;;;15.30;1.00;;;;;;5041855;28;20454;-75
2023/10/21 07:54:03;;;;;;;6.67;1.60;;;15.50;1.00;;;;;;5028759;28;20398;-75
2023/10/21 07:56:28;;;;;;;10.43;2.37;;;15.50;1.00;;;;;;5036989;28;20431;-75
2023/10/21 07:58:56;;;;;;;7.30;1.70;;;15.50;1.00;;;;;;5030603;28;20532;-75
2023/10/21 08:01:26;;;;;;;3.90;1.17;;;15.50;1.00;;;;;;5029185;28;20734;-75
2023/10/21 08:03:56;;;;;;;1.90;0.80;;;15.60;1.00;;;;;;5036038;28;20489;-74
2023/10/21 08:07:13;;;;;;;0.50;0.47;;;15.60;1.00;;;;;;5040395;28;20488;-82
2023/10/21 08:09:39;;;;;;;5.60;1.60;;;15.60;1.00;;;;;;5028495;28;20436;-80
2023/10/21 08:12:25;;;;;;;3.53;0.90;;;15.60;1.00;;;;;;5039424;28;20456;-82
2023/10/21 08:14:57;;;;;;;0.70;0.50;;;15.70;1.00;;;;;;5025608;28;20192;-82
2023/10/21 08:17:32;;;;;;;0.50;0.50;;;15.80;1.00;;;;;;5033424;28;20442;-82
2023/10/21 08:20:31;;;;;;;2.90;0.73;;;15.90;1.00;;;;;;5029749;28;20402;-74
2023/10/21 08:22:57;;;;;;;7.60;1.17;;;15.80;1.00;;;;;;5030554;28;20434;-75
2023/10/21 08:25:32;;;;;;;7.60;0.83;;;15.80;1.00;;;;;;5030972;28;20429;-75
2023/10/21 08:27:57;;;;;;;1.67;0.67;;;15.80;1.00;;;;;;5032989;28;20677;-75
2023/10/21 08:30:38;;;;;;;1.97;0.70;;;15.70;1.00;;;;;;5021082;28;20415;-75
2023/10/21 08:33:07;;;;;;;1.40;0.50;;;15.70;1.00;;;;;;5033560;28;20179;-76
2023/10/21 08:35:34;;;;;;;8.13;6.97;;;15.60;1.00;;;;;;5024702;28;20903;-75
2023/10/21 08:38:08;;;;;;;7.37;6.73;;;15.60;1.00;;;;;;5030663;28;20410;-75
2023/10/21 08:40:39;;;;;;;2.57;0.77;;;15.70;1.00;;;;;;5038556;28;20394;-75
2023/10/21 08:43:32;;;;;;;67.40;53.90;;;15.70;1.00;;;;;;5046551;28;20555;-75
2023/10/21 08:46:02;;;;;;;2.63;1.07;;;15.90;1.00;;;;;;5028943;28;20400;-75
2023/10/21 08:48:34;;;;;;;3.47;1.27;;;16.00;1.00;;;;;;5023393;28;20406;-75
2023/10/21 08:51:13;;;;;;;2.90;0.60;;;16.10;1.00;;;;;;5017178;28;20457;-82
2023/10/21 08:57:09;;;;;;;1.47;0.40;;;16.40;1.00;;;;;;5023970;28;20403;-81
2023/10/21 09:00:04;;;;;;;3.00;0.90;;;16.50;1.00;;;;;;5027281;28;20398;-81
2023/10/21 09:06:18;;;;;;;3.60;0.53;;;16.30;1.00;;;;;;5042757;28;20394;-75
2023/10/21 09:08:50;;;;;;;6.90;0.60;;;16.10;1.00;;;;;;5041454;28;20435;-76
2023/10/21 09:11:18;;;;;;;5.67;1.47;;;15.80;1.00;;;;;;5048925;28;20934;-75
2023/10/21 09:13:45;;;;;;;9.63;4.87;;;15.80;1.00;;;;;;5030436;28;20399;-75
2023/10/21 09:16:23;;;;;;;1.87;0.80;;;15.90;1.00;;;;;;5035215;28;20410;-76
2023/10/21 09:19:06;;;;;;;68.70;51.77;;;16.00;1.00;;;;;;5032080;28;20410;-75
2023/10/21 09:21:37;;;;;;;34.43;30.97;;;16.20;1.00;;;;;;5035511;28;20532;-75
2023/10/21 09:24:11;;;;;;;1.63;0.70;;;16.30;1.00;;;;;;5028651;28;20821;-75
2023/10/21 09:26:39;;;;;;;1.50;0.67;;;16.30;1.00;;;;;;5027549;28;20918;-75
2023/10/21 09:29:31;;;;;;;3.00;1.03;;;16.40;1.00;;;;;;5029850;28;20433;-75
2023/10/21 09:31:57;;;;;;;2.27;0.80;;;16.70;1.00;;;;;;5035163;28;20456;-75
2023/10/21 09:34:30;;;;;;;2.50;0.70;;;16.80;1.00;;;;;;5032643;28;20531;-75
2023/10/21 09:37:04;;;;;;;4.60;0.70;;;16.80;1.00;;;;;;5033935;28;20256;-75
2023/10/21 09:39:55;;;;;;;1.70;0.50;;;17.00;1.00;;;;;;5033160;28;20445;-83
2023/10/21 09:42:44;;;;;;;3.03;0.80;;;17.10;1.00;;;;;;5032412;28;20535;-82
2023/10/21 09:45:18;;;;;;;1.27;0.80;;;17.10;1.00;;;;;;5031266;28;20449;-82
2023/10/21 09:48:05;;;;;;;1.00;0.60;;;17.20;1.00;;;;;;5032501;28;20437;-83
2023/10/21 09:50:54;;;;;;;1.90;0.63;;;17.20;1.00;;;;;;5044165;28;20433;-83
2023/10/21 10:04:13;;;;;;;1.97;0.60;;;17.70;1.00;;;;;;5025852;28;20435;-82
2023/10/21 10:06:47;;;;;;;1.20;0.60;;;17.80;1.00;;;;;;5023602;28;20404;-84
2023/10/21 10:09:27;;;;;;;7.13;1.10;;;17.80;1.00;;;;;;5035138;28;20460;-83
2023/10/21 10:12:37;;;;;;;2.40;0.70;;;17.80;1.00;;;;;;5029549;28;20450;-84
2023/10/21 10:18:47;;;;;;;1.30;0.73;;;17.60;1.00;;;;;;5035536;28;20454;-84
2023/10/21 10:21:37;;;;;;;5.87;5.37;;;17.20;1.00;;;;;;5028825;28;20482;-81
2023/10/21 10:27:41;;;;;;;5.50;0.77;;;16.90;1.00;;;;;;5039974;28;20465;-82
2023/10/21 10:33:32;;;;;;;1.27;0.67;;;17.00;1.00;;;;;;5034640;28;20424;-82
2023/10/21 10:36:00;;;;;;;0.77;0.50;;;17.20;1.00;;;;;;5021260;28;20400;-81
2023/10/21 10:38:31;;;;;;;0.80;0.60;;;17.20;1.00;;;;;;5029942;28;20427;-83
2023/10/21 10:41:07;;;;;;;1.17;0.70;;;17.20;1.00;;;;;;5024860;28;20446;-84
2023/10/21 10:43:39;;;;;;;1.03;0.70;;;17.20;1.00;;;;;;5026361;28;20456;-85
2023/10/21 10:46:08;;;;;;;4.43;0.70;;;17.30;1.00;;;;;;5023609;28;20427;-84
2023/10/21 10:48:39;;;;;;;1.10;0.70;;;17.30;1.00;;;;;;5025305;28;20432;-85
2023/10/21 10:51:43;;;;;;;0.50;0.47;;;17.30;1.00;;;;;;5022668;28;20462;-83
2023/10/21 10:54:32;;;;;;;3.27;0.80;;;17.50;1.00;;;;;;5032377;28;20396;-80
2023/10/21 10:57:37;;;;;;;1.73;0.60;;;18.00;1.00;;;;;;5043557;28;20441;-82
2023/10/21 11:00:51;;;;;;;1.83;0.67;;;18.10;1.00;;;;;;5028092;28;20932;-83
2023/10/21 11:10:02;;;;;;;1.57;1.03;;;17.80;1.00;;;;;;5032269;28;20464;-82
2023/10/21 11:16:31;;;;;;;2.47;0.60;;;17.90;1.00;;;;;;5026293;28;20413;-82
2023/10/21 11:18:58;;;;;;;0.90;0.50;;;18.20;1.00;;;;;;5022911;28;20533;-83
2023/10/21 11:24:45;;;;;;;1.27;0.70;;;18.70;1.00;;;;;;5033407;28;20435;-83
2023/10/21 11:27:12;;;;;;;2.30;0.53;;;18.60;1.00;;;;;;5035920;28;20490;-83
2023/10/21 11:29:52;;;;;;;10.77;1.37;;;18.40;1.00;;;;;;5030235;28;20441;-86
2023/10/21 11:32:49;;;;;;;1.20;0.70;;;18.10;1.00;;;;;;5025576;28;20546;-87
2023/10/21 11:36:08;;;;;;;1.97;0.70;;;17.90;1.00;;;;;;5051954;28;20465;-88
2023/10/21 11:52:55;;;;;;;6.33;0.67;;;18.20;1.00;;;;;;5038977;28;20483;-85
2023/10/21 12:00:32;;;;;;;3.53;0.67;;;18.70;1.00;;;;;;5032272;28;20415;-83
2023/10/21 12:15:17;;;;;;;2.03;0.50;;;18.00;1.00;;;;;;5052581;28;20417;-84
2023/10/21 12:37:00;;;;;;;152.40;37.27;;;17.90;1.00;;;;;;5020742;28;20425;-87
2023/10/21 12:43:10;;;;;;;3.47;0.60;;;18.40;1.00;;;;;;5051989;28;20420;-84
2023/10/21 12:52:17;;;;;;;3.43;0.83;;;18.50;1.00;;;;;;5035249;28;20474;-86
2023/10/21 12:54:56;;;;;;;6.30;1.63;;;18.50;1.00;;;;;;5024762;28;20435;-85
2023/10/21 13:00:44;;;;;;;0.83;0.50;;;18.50;1.00;;;;;;5035222;28;20401;-85
2023/10/21 13:03:14;;;;;;;657.77;290.47;;;18.50;1.00;;;;;;5033045;28;20431;-84
2023/10/21 13:05:43;;;;;;;0.50;0.40;;;18.70;1.00;;;;;;5041513;28;20419;-85
2023/10/21 13:14:58;;;;;;;6.83;0.70;;;19.30;1.00;;;;;;5036536;28;20399;-85
2023/10/21 13:17:55;;;;;;;769.57;236.27;;;19.20;1.00;;;;;;5036695;28;20526;-83
2023/10/21 13:23:43;;;;;;;773.27;231.50;;;19.00;1.00;;;;;;5037299;28;20471;-86
2023/10/21 13:29:32;;;;;;;776.50;241.70;;;19.20;1.00;;;;;;5037516;28;20220;-86
2023/10/21 13:36:07;;;;;;;762.37;223.83;;;18.90;1.00;;;;;;5047243;28;20472;-86
2023/10/21 13:38:38;;;;;;;799.55;240.27;;;18.80;1.00;;;;;;5035538;28;20434;-83
2023/10/21 13:44:25;;;;;;;741.80;185.05;;;18.80;1.00;;;;;;5042979;28;20402;-86
2023/10/21 13:50:17;;;;;;;758.03;212.80;;;19.00;1.00;;;;;;5016059;28;20196;-82
2023/10/21 13:59:55;;;;;;;743.45;191.20;;;19.00;1.00;;;;;;5035829;28;20543;-85
2023/10/21 14:02:32;;;;;;;55.23;33.47;;;18.90;1.00;;;;;;5029478;28;20211;-86
2023/10/21 14:08:56;;;;;;;4.60;0.73;;;18.90;1.00;;;;;;5037684;28;20207;-86
2023/10/21 14:11:43;;;;;;;197.03;71.43;;;18.90;1.00;;;;;;5029245;28;20455;-86
2023/10/21 14:15:05;;;;;;;3.50;0.87;;;19.10;1.00;;;;;;5022739;28;20541;-86
2023/10/21 14:17:34;;;;;;;424.70;256.80;;;19.70;1.00;;;;;;5027415;28;20789;-88
2023/10/21 14:20:04;;;;;;;2.90;0.60;;;19.70;1.00;;;;;;5026543;28;20508;-89
2023/10/21 14:26:10;;;;;;;755.70;212.50;;;19.70;1.00;;;;;;5033504;28;20476;-84
2023/10/21 14:28:38;;;;;;;778.53;242.23;;;19.70;1.00;;;;;;5021434;28;20428;-83
2023/10/21 14:31:29;;;;;;;757.03;214.27;;;19.50;1.00;;;;;;5030717;28;20475;-83
2023/10/21 14:34:14;;;;;;;750.58;209.32;;;19.60;1.00;;;;;;5023056;28;20420;-84
2023/10/21 14:50:09;;;;;;;764.47;222.07;;;19.70;1.00;;;;;;5035286;28;20470;-88
2023/10/21 14:52:37;;;;;;;10.00;3.23;;;;;;;;;;5049516;28;20486;-86
2023/10/21 14:55:49;;;;;;;771.90;244.37;;;20.10;1.00;;;;;;5017905;28;20457;-88
2023/10/21 14:58:32;;;;;;;409.90;240.60;;;20.00;1.00;;;;;;5044861;28;20511;-88
2023/10/21 15:01:37;;;;;;;82.90;75.23;;;20.00;1.00;;;;;;5032899;28;20951;-87
2023/10/21 15:04:14;;;;;;;777.92;256.95;;;19.70;1.00;;;;;;5027775;28;20461;-87
2023/10/21 15:06:56;;;;;;;760.13;227.83;;;19.50;1.00;;;;;;5024556;28;20177;-87
2023/10/21 15:12:47;;;;;;;742.33;198.27;;;19.10;1.00;;;;;;5020078;28;20487;-84
2023/10/21 15:18:56;;;;;;;713.20;270.17;;;19.10;1.00;;;;;;5018362;28;20183;-86
2023/10/21 15:24:43;;;;;;;765.97;169.13;;;18.70;1.00;;;;;;5033425;28;20219;-85
2023/10/21 15:30:32;;;;;;;621.22;119.93;;;18.40;1.00;;;;;;5034226;28;20206;-84
2023/10/21 15:33:08;;;;;;;664.92;129.90;;;18.30;1.00;;;;;;5032771;28;20199;-83
2023/10/21 15:35:38;;;;;;;625.50;124.28;;;18.20;1.00;;;;;;5033336;28;20711;-83
2023/10/21 15:38:08;;;;;;;627.13;128.27;;;18.20;1.00;;;;;;5033284;28;20633;-83
2023/10/21 15:40:38;;;;;;;595.85;111.60;;;18.10;1.00;;;;;;5033980;28;20623;-89
2023/10/21 15:43:04;;;;;;;597.70;110.45;;;18.10;1.00;;;;;;5032469;28;20757;-88
2023/10/21 15:48:54;;;;;;;872.05;449.60;;;18.00;1.00;;;;;;5023377;28;20203;-88
2023/10/21 15:51:20;;;;;;;755.53;190.43;;;17.80;1.00;;;;;;5033534;28;20233;-89
2023/10/21 15:57:14;;;;;;;2.57;0.63;;;17.60;1.00;;;;;;5024764;28;20180;-88
2023/10/21 15:59:47;;;;;;;2.40;0.70;;;17.30;1.00;;;;;;5029044;28;21006;-88
2023/10/21 16:02:13;;;;;;;2.90;0.80;;;17.00;1.00;;;;;;5017209;28;20445;-87
2023/10/21 16:05:14;;;;;;;1.70;0.63;;;16.90;1.00;;;;;;5028480;28;20436;-88
2023/10/21 16:11:07;;;;;;;2.10;0.70;;;16.30;1.00;;;;;;5014233;28;20432;-85
2023/10/21 16:13:36;;;;;;;1.23;0.80;;;16.30;1.00;;;;;;5032599;28;20436;-89
2023/10/21 16:19:56;;;;;;;711.07;154.93;;;16.00;1.00;;;;;;5033458;28;20495;-89
2023/10/21 16:22:35;;;;;;;3.03;0.90;;;15.80;1.00;;;;;;5033107;28;20508;-89
2023/10/21 16:29:15;;;;;;;699.03;132.98;;;15.70;1.00;;;;;;5014203;28;20470;-89
2023/10/21 16:35:26;;;;;;;1.23;0.70;;;15.40;1.00;;;;;;5014531;28;20418;-88
2023/10/21 16:38:20;;;;;;;707.15;137.57;;;15.40;1.00;;;;;;5028488;28;20463;-88
2023/10/21 16:44:20;;;;;;;3.00;1.10;;;15.30;1.00;;;;;;5024910;28;20439;-83
2023/10/21 16:47:02;;;;;;;704.40;133.87;;;15.20;1.00;;;;;;5023719;28;20432;-87
2023/10/21 16:49:56;;;;;;;218.83;87.37;;;15.20;1.00;;;;;;5016668;28;20490;-86
2023/10/21 16:52:50;;;;;;;387.30;113.83;;;15.20;1.00;;;;;;5028149;28;20465;-89
2023/10/21 16:55:56;;;;;;;2.60;1.10;;;15.10;1.00;;;;;;5032880;28;20464;-87
2023/10/21 17:01:46;;;;;;;704.15;124.38;;;15.00;1.00;;;;;;5032823;28;20176;-83
2023/10/21 17:11:20;;;;;;;706.28;130.30;;;14.90;1.00;;;;;;5013734;28;20202;-83
2023/10/21 17:17:44;;;;;;;774.65;129.68;;;14.80;1.00;;;;;;5030020;28;20184;-82
2023/10/21 17:23:31;;;;;;;766.38;130.65;;;14.90;1.00;;;;;;5024704;28;20211;-83
2023/10/21 17:26:38;;;;;;;685.57;125.83;;;14.90;1.00;;;;;;5032296;28;20663;-82
2023/10/21 17:36:08;;;;;;;818.80;189.85;;;14.80;1.00;;;;;;5039773;28;20231;-83
2023/10/21 17:38:33;;;;;;;826.10;127.75;;;14.80;1.00;;;;;;5033144;28;20211;-83
2023/10/21 17:47:43;;;;;;;566.43;94.23;;;14.80;1.00;;;;;;5046295;28;20677;-88
2023/10/21 17:50:38;;;;;;;682.33;116.77;;;14.80;1.00;;;;;;5038913;28;20439;-86
2023/10/21 17:56:38;;;;;;;1.60;1.10;;;14.70;1.00;;;;;;5030954;28;20406;-86
2023/10/21 17:59:21;;;;;;;677.27;115.83;;;;;;;;;;5052424;28;20976;-86
2023/10/21 18:02:28;;;;;;;2.93;1.03;;;14.40;1.00;;;;;;5040093;28;20509;-87
2023/10/21 18:05:27;;;;;;;681.00;114.80;;;14.30;1.00;;;;;;5028220;28;20455;-84
2023/10/21 18:14:37;;;;;;;2.40;0.90;;;13.80;1.00;;;;;;5036736;28;20447;-83
2023/10/21 18:17:38;;;;;;;8.50;1.60;;;13.70;1.00;;;;;;5036010;28;20438;-83
2023/10/21 18:23:26;;;;;;;7.13;0.90;;;13.50;1.00;;;;;;5045185;28;20446;-82
2023/10/21 18:29:20;;;;;;;675.50;111.97;;;13.30;1.00;;;;;;5038026;28;20198;-78
2023/10/21 18:32:03;;;;;;;659.40;103.27;;;;;;;;;;5041264;28;20930;-74
2023/10/21 18:34:28;;;;;;;7.00;1.27;;;13.10;1.00;;;;;;5032285;28;20419;-73
2023/10/21 18:36:54;;;;;;;8.03;1.57;;;12.90;1.00;;;;;;5046952;28;20504;-73
2023/10/21 18:39:21;;;;;;;4.40;1.10;;;12.90;1.00;;;;;;5034549;28;20211;-73
2023/10/21 18:42:08;;;;;;;133.57;45.53;;;12.90;1.00;;;;;;5036960;28;20231;-81
2023/10/21 18:47:56;;;;;;;670.47;110.50;;;12.70;1.00;;;;;;5032909;28;20383;-82
2023/10/21 18:53:44;;;;;;;464.03;75.03;;;12.50;1.00;;;;;;5034476;28;20237;-82
2023/10/21 18:56:26;;;;;;;4.60;1.70;;;12.40;1.00;;;;;;5042776;28;20431;-82
2023/10/21 18:58:52;;;;;;;33.60;4.80;;;12.30;1.00;;;;;;5031592;28;20950;-73
2023/10/21 19:01:18;;;;;;;130.40;48.17;;;12.20;1.00;;;;;;5045440;28;20500;-73
2023/10/21 19:03:44;;;;;;;293.97;66.57;;;12.10;1.00;;;;;;5036215;28;20173;-73
2023/10/21 19:06:09;;;;;;;241.43;64.13;;;12.10;1.00;;;;;;5027563;28;20478;-74
2023/10/21 19:08:36;;;;;;;648.50;100.43;;;12.00;1.00;;;;;;5054468;28;20183;-73
2023/10/21 19:11:02;;;;;;;334.17;68.00;;;12.00;1.00;;;;;;5040147;28;20267;-73
2023/10/21 19:13:28;;;;;;;374.67;72.10;;;11.90;1.00;;;;;;5033682;28;20470;-74
2023/10/21 19:15:54;;;;;;;369.27;71.13;;;11.90;1.00;;;;;;5048518;28;20461;-73
2023/10/21 19:18:20;;;;;;;281.20;77.90;;;12.10;1.00;;;;;;5032182;28;20868;-73
2023/10/21 19:20:46;;;;;;;397.90;72.10;;;11.80;1.00;;;;;;5034658;28;20251;-73
2023/10/21 19:23:12;;;;;;;437.67;79.07;;;11.70;1.00;;;;;;5041740;28;20521;-73
2023/10/21 19:25:44;;;;;;;354.37;68.13;;;11.60;1.00;;;;;;5047732;28;20175;-74
2023/10/21 19:38:26;;;;;;;420.53;67.37;;;11.40;1.00;;;;;;5033885;28;20379;-83
2023/10/21 19:41:20;;;;;;;513.10;78.27;;;11.40;1.00;;;;;;5050992;28;20421;-83
2023/10/21 19:44:03;;;;;;;468.37;70.73;;;11.30;1.00;;;;;;5031490;28;20493;-83
2023/10/21 19:47:03;;;;;;;454.03;70.80;;;11.30;1.00;;;;;;5031426;28;20484;-83